sensor_id;sensor_type;location;lat;lon;timestamp;pressure;altitude;pressure_sealevel;temperature;humidity
60871;BME280;46714;50.118;14.462;2022-12-08T00:01:43;98416.09;;;1.78;93.81
60871;BME280;46714;50.118;14.462;2022-12-08T00:04:08;98413.78;;;1.75;94.21
60871;BME280;46714;50.118;14.462;2022-12-08T00:06:35;98398.88;;;1.73;94.26
60871;BME280;46714;50.118;14.462;2022-12-08T00:09:23;98407.28;;;1.70;94.88
60871;BME280;46714;50.118;14.462;2022-12-08T00:14:26;98405.75;;;1.67;94.50
60871;BME280;46714;50.118;14.462;2022-12-08T00:16:55;98399.56;;;1.66;94.55
60871;BME280;46714;50.118;14.462;2022-12-08T00:19:21;98401.44;;;1.66;94.01
60871;BME280;46714;50.118;14.462;2022-12-08T00:21:46;98396.88;;;1.66;94.38
60871;BME280;46714;50.118;14.462;2022-12-08T00:24:12;98399.56;;;1.66;94.64
60871;BME280;46714;50.118;14.462;2022-12-08T00:26:37;98398.91;;;1.64;94.46
60871;BME280;46714;50.118;14.462;2022-12-08T00:29:03;98396.06;;;1.66;93.91
60871;BME280;46714;50.118;14.462;2022-12-08T00:31:28;98393.38;;;1.66;93.91
60871;BME280;46714;50.118;14.462;2022-12-08T00:33:54;98390.53;;;1.67;94.29
60871;BME280;46714;50.118;14.462;2022-12-08T00:36:19;98392.34;;;1.67;94.20
60871;BME280;46714;50.118;14.462;2022-12-08T00:38:44;98398.38;;;1.69;93.61
60871;BME280;46714;50.118;14.462;2022-12-08T00:41:12;98404.59;;;1.70;93.84
60871;BME280;46714;50.118;14.462;2022-12-08T00:43:42;98402.75;;;1.70;94.21
60871;BME280;46714;50.118;14.462;2022-12-08T00:46:08;98405.44;;;1.70;93.79
60871;BME280;46714;50.118;14.462;2022-12-08T00:48:34;98400.22;;;1.68;93.00
60871;BME280;46714;50.118;14.462;2022-12-08T00:50:59;98404.59;;;1.70;93.43
60871;BME280;46714;50.118;14.462;2022-12-08T00:53:24;98404.59;;;1.70;93.15
60871;BME280;46714;50.118;14.462;2022-12-08T00:55:50;98396.56;;;1.70;92.69
60871;BME280;46714;50.118;14.462;2022-12-08T00:58:15;98407.09;;;1.71;92.64
60871;BME280;46714;50.118;14.462;2022-12-08T01:00:41;98394.50;;;1.72;92.71
60871;BME280;46714;50.118;14.462;2022-12-08T01:03:11;98396.19;;;1.73;93.08
60871;BME280;46714;50.118;14.462;2022-12-08T01:05:37;98405.22;;;1.72;92.28
60871;BME280;46714;50.118;14.462;2022-12-08T01:08:05;98400.91;;;1.71;92.95
60871;BME280;46714;50.118;14.462;2022-12-08T01:10:34;98405.22;;;1.72;93.32
60871;BME280;46714;50.118;14.462;2022-12-08T01:13:00;98406.09;;;1.72;92.52
60871;BME280;46714;50.118;14.462;2022-12-08T01:15:25;98407.75;;;1.73;92.43
60871;BME280;46714;50.118;14.462;2022-12-08T01:17:50;98412.94;;;1.75;92.84
60871;BME280;46714;50.118;14.462;2022-12-08T01:23:12;98401.19;;;1.76;92.58
60871;BME280;46714;50.118;14.462;2022-12-08T01:25:37;98408.41;;;1.75;92.34
60871;BME280;46714;50.118;14.462;2022-12-08T01:28:03;98396.66;;;1.76;92.37
60871;BME280;46714;50.118;14.462;2022-12-08T01:30:28;98401.03;;;1.77;92.57
60871;BME280;46714;50.118;14.462;2022-12-08T01:32:54;98397.50;;;1.77;92.93
60871;BME280;46714;50.118;14.462;2022-12-08T01:35:19;98399.34;;;1.76;93.02
60871;BME280;46714;50.118;14.462;2022-12-08T01:37:45;98397.69;;;1.75;92.66
60871;BME280;46714;50.118;14.462;2022-12-08T01:40:10;98398.50;;;1.76;92.51
60871;BME280;46714;50.118;14.462;2022-12-08T01:42:36;98393.16;;;1.76;93.19
60871;BME280;46714;50.118;14.462;2022-12-08T01:45:35;98398.34;;;1.77;93.70
60871;BME280;46714;50.118;14.462;2022-12-08T01:47:59;98388.59;;;1.76;94.11
60871;BME280;46714;50.118;14.462;2022-12-08T01:50:30;98392.69;;;1.72;94.00
60871;BME280;46714;50.118;14.462;2022-12-08T01:56:06;98382.94;;;1.71;94.16
60871;BME280;46714;50.118;14.462;2022-12-08T01:58:39;98380.47;;;1.70;94.57
60871;BME280;46714;50.118;14.462;2022-12-08T02:01:08;98383.16;;;1.70;94.91
60871;BME280;46714;50.118;14.462;2022-12-08T02:03:41;98379.97;;;1.66;94.85
60871;BME280;46714;50.118;14.462;2022-12-08T02:06:11;98373.94;;;1.64;94.95
60871;BME280;46714;50.118;14.462;2022-12-08T02:08:37;98379.31;;;1.64;95.23
60871;BME280;46714;50.118;14.462;2022-12-08T02:11:07;98375.13;;;1.61;94.92
60871;BME280;46714;50.118;14.462;2022-12-08T02:13:34;98377.31;;;1.58;95.22
60871;BME280;46714;50.118;14.462;2022-12-08T02:22:03;98363.56;;;1.61;94.43
60871;BME280;46714;50.118;14.462;2022-12-08T02:24:36;98368.75;;;1.62;94.91
60871;BME280;46714;50.118;14.462;2022-12-08T02:32:45;98360.00;;;1.68;93.90
60871;BME280;46714;50.118;14.462;2022-12-08T02:35:33;98366.03;;;1.71;93.44
60871;BME280;46714;50.118;14.462;2022-12-08T02:38:09;98361.16;;;1.74;93.67
60871;BME280;46714;50.118;14.462;2022-12-08T02:40:41;98359.75;;;1.78;93.86
60871;BME280;46714;50.118;14.462;2022-12-08T02:46:23;98352.03;;;1.83;92.76
60871;BME280;46714;50.118;14.462;2022-12-08T02:48:55;98341.91;;;1.85;92.18
60871;BME280;46714;50.118;14.462;2022-12-08T02:51:21;98344.44;;;1.87;91.97
60871;BME280;46714;50.118;14.462;2022-12-08T02:53:47;98346.13;;;1.88;92.46
60871;BME280;46714;50.118;14.462;2022-12-08T03:04:02;98344.72;;;1.92;91.80
60871;BME280;46714;50.118;14.462;2022-12-08T03:06:41;98342.69;;;1.94;92.33
60871;BME280;46714;50.118;14.462;2022-12-08T03:14:39;98335.31;;;1.96;91.54
60871;BME280;46714;50.118;14.462;2022-12-08T03:17:10;98332.63;;;1.96;91.80
60871;BME280;46714;50.118;14.462;2022-12-08T03:19:38;98333.66;;;1.95;91.68
60871;BME280;46714;50.118;14.462;2022-12-08T03:22:06;98334.47;;;1.96;91.95
60871;BME280;46714;50.118;14.462;2022-12-08T03:24:35;98330.97;;;1.95;92.35
60871;BME280;46714;50.118;14.462;2022-12-08T03:27:03;98330.09;;;1.95;92.51
60871;BME280;46714;50.118;14.462;2022-12-08T03:29:32;98332.78;;;1.95;93.38
60871;BME280;46714;50.118;14.462;2022-12-08T03:32:05;98317.88;;;1.92;93.21
60871;BME280;46714;50.118;14.462;2022-12-08T03:34:44;98319.75;;;1.92;92.26
60871;BME280;46714;50.118;14.462;2022-12-08T03:37:12;98326.97;;;1.91;92.10
60871;BME280;46714;50.118;14.462;2022-12-08T03:39:38;98321.59;;;1.91;92.18
60871;BME280;46714;50.118;14.462;2022-12-08T03:42:04;98318.09;;;1.91;91.36
60871;BME280;46714;50.118;14.462;2022-12-08T03:44:29;98319.56;;;1.93;91.40
60871;BME280;46714;50.118;14.462;2022-12-08T03:46:55;98320.41;;;1.94;91.67
60871;BME280;46714;50.118;14.462;2022-12-08T03:49:20;98320.56;;;1.92;91.10
60871;BME280;46714;50.118;14.462;2022-12-08T03:51:45;98319.75;;;1.92;90.92
60871;BME280;46714;50.118;14.462;2022-12-08T03:54:11;98328.63;;;1.92;90.95
60871;BME280;46714;50.118;14.462;2022-12-08T03:56:36;98316.06;;;1.93;91.05
60871;BME280;46714;50.118;14.462;2022-12-08T03:59:03;98317.72;;;1.94;90.49
60871;BME280;46714;50.118;14.462;2022-12-08T04:01:29;98314.22;;;1.93;90.80
60871;BME280;46714;50.118;14.462;2022-12-08T04:03:55;98306.97;;;1.94;90.31
60871;BME280;46714;50.118;14.462;2022-12-08T04:06:21;98320.41;;;1.94;90.28
60871;BME280;46714;50.118;14.462;2022-12-08T04:08:47;98308.63;;;1.95;90.59
60871;BME280;46714;50.118;14.462;2022-12-08T04:11:13;98311.31;;;1.95;90.44
60871;BME280;46714;50.118;14.462;2022-12-08T04:13:39;98308.84;;;1.93;90.12
60871;BME280;46714;50.118;14.462;2022-12-08T04:16:05;98302.66;;;1.93;90.63
60871;BME280;46714;50.118;14.462;2022-12-08T04:18:32;98302.66;;;1.93;90.30
60871;BME280;46714;50.118;14.462;2022-12-08T04:20:58;98305.31;;;1.93;90.07
60871;BME280;46714;50.118;14.462;2022-12-08T04:23:24;98305.13;;;1.94;90.04
60871;BME280;46714;50.118;14.462;2022-12-08T04:25:50;98300.59;;;1.95;90.53
60871;BME280;46714;50.118;14.462;2022-12-08T04:28:16;98299.97;;;1.93;90.06
60871;BME280;46714;50.118;14.462;2022-12-08T04:30:41;98293.56;;;1.94;90.20
60871;BME280;46714;50.118;14.462;2022-12-08T04:33:07;98298.09;;;1.93;90.00
60871;BME280;46714;50.118;14.462;2022-12-08T04:35:32;98285.69;;;1.92;90.02
60871;BME280;46714;50.118;14.462;2022-12-08T04:37:57;98291.91;;;1.93;90.62
60871;BME280;46714;50.118;14.462;2022-12-08T04:40:23;98292.75;;;1.93;89.99
60871;BME280;46714;50.118;14.462;2022-12-08T04:42:48;98296.41;;;1.92;90.81
60871;BME280;46714;50.118;14.462;2022-12-08T04:45:13;98300.13;;;1.91;91.07
60871;BME280;46714;50.118;14.462;2022-12-08T04:47:39;98295.75;;;1.90;90.88
60871;BME280;46714;50.118;14.462;2022-12-08T04:50:05;98295.13;;;1.88;90.83
60871;BME280;46714;50.118;14.462;2022-12-08T04:52:31;98294.47;;;1.86;90.71
60871;BME280;46714;50.118;14.462;2022-12-08T04:54:56;98288.25;;;1.85;90.78
60871;BME280;46714;50.118;14.462;2022-12-08T04:57:22;98282.88;;;1.85;90.94
60871;BME280;46714;50.118;14.462;2022-12-08T04:59:47;98278.72;;;1.83;90.68
60871;BME280;46714;50.118;14.462;2022-12-08T05:02:12;98280.75;;;1.81;90.59
60871;BME280;46714;50.118;14.462;2022-12-08T05:04:38;98273.91;;;1.78;90.27
60871;BME280;46714;50.118;14.462;2022-12-08T05:07:03;98283.16;;;1.76;90.59
60871;BME280;46714;50.118;14.462;2022-12-08T05:09:29;98275.63;;;1.71;90.42
60871;BME280;46714;50.118;14.462;2022-12-08T05:11:54;98270.66;;;1.68;90.51
60871;BME280;46714;50.118;14.462;2022-12-08T05:14:19;98275.53;;;1.64;90.97
60871;BME280;46714;50.118;14.462;2022-12-08T05:16:45;98281.25;;;1.61;91.21
60871;BME280;46714;50.118;14.462;2022-12-08T05:19:11;98280.78;;;1.58;91.37
60871;BME280;46714;50.118;14.462;2022-12-08T05:21:37;98282.63;;;1.57;91.79
60871;BME280;46714;50.118;14.462;2022-12-08T05:24:02;98281.97;;;1.55;91.98
60871;BME280;46714;50.118;14.462;2022-12-08T05:26:27;98276.97;;;1.52;91.35
60871;BME280;46714;50.118;14.462;2022-12-08T05:28:53;98277.97;;;1.51;91.78
60871;BME280;46714;50.118;14.462;2022-12-08T05:31:18;98288.69;;;1.51;91.57
60871;BME280;46714;50.118;14.462;2022-12-08T05:33:44;98281.69;;;1.50;91.93
60871;BME280;46714;50.118;14.462;2022-12-08T05:36:11;98284.34;;;1.50;91.83
60871;BME280;46714;50.118;14.462;2022-12-08T05:38:38;98282.50;;;1.51;91.58
60871;BME280;46714;50.118;14.462;2022-12-08T05:41:07;98278.16;;;1.50;92.19
60871;BME280;46714;50.118;14.462;2022-12-08T05:43:33;98279.34;;;1.47;91.71
60871;BME280;46714;50.118;14.462;2022-12-08T05:45:59;98273.13;;;1.46;91.59
60871;BME280;46714;50.118;14.462;2022-12-08T05:48:24;98275.81;;;1.46;91.74
60871;BME280;46714;50.118;14.462;2022-12-08T05:50:50;98278.69;;;1.45;91.67
60871;BME280;46714;50.118;14.462;2022-12-08T05:53:16;98275.34;;;1.43;90.99
60871;BME280;46714;50.118;14.462;2022-12-08T05:55:43;98278.69;;;1.45;91.60
60871;BME280;46714;50.118;14.462;2022-12-08T05:58:14;98279.34;;;1.47;91.83
60871;BME280;46714;50.118;14.462;2022-12-08T06:00:41;98276.31;;;1.50;91.43
60871;BME280;46714;50.118;14.462;2022-12-08T06:03:07;98271.78;;;1.51;91.89
60871;BME280;46714;50.118;14.462;2022-12-08T06:05:33;98283.81;;;1.55;91.79
60871;BME280;46714;50.118;14.462;2022-12-08T06:07:59;98273.75;;;1.57;92.37
60871;BME280;46714;50.118;14.462;2022-12-08T06:10:24;98276.25;;;1.58;91.79
60871;BME280;46714;50.118;14.462;2022-12-08T06:12:52;98268.22;;;1.58;91.32
60871;BME280;46714;50.118;14.462;2022-12-08T06:15:17;98281.25;;;1.61;91.18
60871;BME280;46714;50.118;14.462;2022-12-08T06:17:43;98280.22;;;1.62;91.29
60871;BME280;46714;50.118;14.462;2022-12-08T06:20:08;98267.69;;;1.63;90.78
60871;BME280;46714;50.118;14.462;2022-12-08T06:22:34;98273.88;;;1.63;90.76
60871;BME280;46714;50.118;14.462;2022-12-08T06:25:00;98281.09;;;1.63;90.78
60871;BME280;46714;50.118;14.462;2022-12-08T06:27:25;98278.56;;;1.61;91.13
60871;BME280;46714;50.118;14.462;2022-12-08T06:29:50;98278.56;;;1.61;90.95
60871;BME280;46714;50.118;14.462;2022-12-08T06:32:16;98272.38;;;1.61;90.73
60871;BME280;46714;50.118;14.462;2022-12-08T06:34:41;98275.22;;;1.59;91.40
60871;BME280;46714;50.118;14.462;2022-12-08T06:37:07;98274.41;;;1.59;91.65
60871;BME280;46714;50.118;14.462;2022-12-08T06:39:32;98281.78;;;1.57;91.06
60871;BME280;46714;50.118;14.462;2022-12-08T06:41:57;98282.78;;;1.56;91.21
60871;BME280;46714;50.118;14.462;2022-12-08T06:44:41;98278.44;;;1.55;91.41
60871;BME280;46714;50.118;14.462;2022-12-08T06:47:07;98275.94;;;1.53;91.05
60871;BME280;46714;50.118;14.462;2022-12-08T06:49:32;98281.97;;;1.55;91.59
60871;BME280;46714;50.118;14.462;2022-12-08T06:51:57;98285.31;;;1.57;92.04
60871;BME280;46714;50.118;14.462;2022-12-08T06:54:23;98288.66;;;1.59;92.32
60871;BME280;46714;50.118;14.462;2022-12-08T06:56:48;98288.09;;;1.64;92.08
60871;BME280;46714;50.118;14.462;2022-12-08T06:59:13;98294.13;;;1.66;92.39
60871;BME280;46714;50.118;14.462;2022-12-08T07:01:39;98290.25;;;1.68;92.26
60871;BME280;46714;50.118;14.462;2022-12-08T07:04:04;98294.41;;;1.71;91.49
60871;BME280;46714;50.118;14.462;2022-12-08T07:06:29;98301.94;;;1.76;91.75
60871;BME280;46714;50.118;14.462;2022-12-08T07:08:56;98303.63;;;1.77;91.52
60871;BME280;46714;50.118;14.462;2022-12-08T07:11:21;98296.56;;;1.76;90.86
60871;BME280;46714;50.118;14.462;2022-12-08T07:13:46;98297.22;;;1.78;91.18
60871;BME280;46714;50.118;14.462;2022-12-08T07:16:12;98296.22;;;1.79;91.46
60871;BME280;46714;50.118;14.462;2022-12-08T07:18:37;98295.19;;;1.80;91.23
60871;BME280;46714;50.118;14.462;2022-12-08T07:21:04;98291.69;;;1.79;91.18
60871;BME280;46714;50.118;14.462;2022-12-08T07:23:32;98290.66;;;1.80;90.63
60871;BME280;46714;50.118;14.462;2022-12-08T07:26:00;98287.16;;;1.80;90.24
60871;BME280;46714;50.118;14.462;2022-12-08T07:28:28;98290.47;;;1.82;90.52
60871;BME280;46714;50.118;14.462;2022-12-08T07:30:55;98288.47;;;1.84;90.56
60871;BME280;46714;50.118;14.462;2022-12-08T07:33:20;98287.25;;;1.86;89.90
60871;BME280;46714;50.118;14.462;2022-12-08T07:35:52;98283.53;;;1.87;89.88
60871;BME280;46714;50.118;14.462;2022-12-08T07:38:25;98288.75;;;1.89;89.93
60871;BME280;46714;50.118;14.462;2022-12-08T07:40:51;98291.59;;;1.87;89.17
60871;BME280;46714;50.118;14.462;2022-12-08T07:43:17;98290.78;;;1.87;89.13
60871;BME280;46714;50.118;14.462;2022-12-08T07:45:43;98297.81;;;1.88;89.38
60871;BME280;46714;50.118;14.462;2022-12-08T07:48:08;98292.91;;;1.92;89.56
60871;BME280;46714;50.118;14.462;2022-12-08T07:50:34;98293.41;;;1.95;89.14
60871;BME280;46714;50.118;14.462;2022-12-08T07:52:59;98295.53;;;2.00;88.98
60871;BME280;46714;50.118;14.462;2022-12-08T07:55:24;98301.56;;;2.02;88.31
60871;BME280;46714;50.118;14.462;2022-12-08T07:57:50;98301.00;;;2.06;88.65
60871;BME280;46714;50.118;14.462;2022-12-08T08:00:16;98292.75;;;2.08;88.80
60871;BME280;46714;50.118;14.462;2022-12-08T08:02:42;98299.59;;;2.10;88.00
60871;BME280;46714;50.118;14.462;2022-12-08T08:05:08;98286.84;;;2.13;87.90
60871;BME280;46714;50.118;14.462;2022-12-08T08:07:34;98297.25;;;2.16;87.98
60871;BME280;46714;50.118;14.462;2022-12-08T08:10:02;98296.03;;;2.18;87.64
60871;BME280;46714;50.118;14.462;2022-12-08T08:12:28;98294.34;;;2.17;86.62
60871;BME280;46714;50.118;14.462;2022-12-08T08:14:53;98296.03;;;2.18;86.62
60871;BME280;46714;50.118;14.462;2022-12-08T08:17:18;98303.06;;;2.19;86.01
60871;BME280;46714;50.118;14.462;2022-12-08T08:19:44;98303.88;;;2.20;86.31
60871;BME280;46714;50.118;14.462;2022-12-08T08:22:10;98307.44;;;2.20;86.43
60871;BME280;46714;50.118;14.462;2022-12-08T08:24:36;98302.06;;;2.20;86.28
60871;BME280;46714;50.118;14.462;2022-12-08T08:27:01;98304.38;;;2.23;86.66
60871;BME280;46714;50.118;14.462;2022-12-08T08:29:27;98303.81;;;2.28;86.95
60871;BME280;46714;50.118;14.462;2022-12-08T08:31:52;98302.44;;;2.32;87.20
60871;BME280;46714;50.118;14.462;2022-12-08T08:34:17;98302.06;;;2.35;86.57
60871;BME280;46714;50.118;14.462;2022-12-08T08:36:43;98305.41;;;2.37;86.10
60871;BME280;46714;50.118;14.462;2022-12-08T08:39:08;98302.06;;;2.35;85.15
60871;BME280;46714;50.118;14.462;2022-12-08T08:41:33;98301.25;;;2.35;85.09
60871;BME280;46714;50.118;14.462;2022-12-08T08:43:59;98301.06;;;2.36;85.43
60871;BME280;46714;50.118;14.462;2022-12-08T08:46:24;98300.69;;;2.39;84.57
60871;BME280;46714;50.118;14.462;2022-12-08T08:48:50;98300.69;;;2.39;84.97
60871;BME280;46714;50.118;14.462;2022-12-08T08:51:15;98306.06;;;2.39;85.24
60871;BME280;46714;50.118;14.462;2022-12-08T08:53:41;98306.72;;;2.41;86.00
60871;BME280;46714;50.118;14.462;2022-12-08T08:56:10;98308.19;;;2.44;84.93
60871;BME280;46714;50.118;14.462;2022-12-08T08:58:37;98310.50;;;2.47;84.80
60871;BME280;46714;50.118;14.462;2022-12-08T09:01:02;98305.13;;;2.47;84.76
60871;BME280;46714;50.118;14.462;2022-12-08T09:03:28;98308.00;;;2.45;83.97
60871;BME280;46714;50.118;14.462;2022-12-08T09:05:53;98310.06;;;2.43;83.95
60871;BME280;46714;50.118;14.462;2022-12-08T09:08:20;98307.81;;;2.47;83.94
60871;BME280;46714;50.118;14.462;2022-12-08T09:10:45;98311.97;;;2.49;84.30
60871;BME280;46714;50.118;14.462;2022-12-08T09:13:11;98317.34;;;2.49;82.82
60871;BME280;46714;50.118;14.462;2022-12-08T09:15:36;98317.91;;;2.45;82.88
60871;BME280;46714;50.118;14.462;2022-12-08T09:18:01;98312.72;;;2.43;83.22
60871;BME280;46714;50.118;14.462;2022-12-08T09:20:27;98303.66;;;2.44;83.10
60871;BME280;46714;50.118;14.462;2022-12-08T09:22:52;98305.50;;;2.44;83.73
60871;BME280;46714;50.118;14.462;2022-12-08T09:25:18;98298.28;;;2.44;83.74
60871;BME280;46714;50.118;14.462;2022-12-08T09:27:43;98294.38;;;2.47;84.52
60871;BME280;46714;50.118;14.462;2022-12-08T09:30:08;98293.16;;;2.49;83.19
60871;BME280;46714;50.118;14.462;2022-12-08T09:32:34;98291.69;;;2.47;82.63
60871;BME280;46714;50.118;14.462;2022-12-08T09:34:59;98292.56;;;2.47;82.95
60871;BME280;46714;50.118;14.462;2022-12-08T09:37:25;98292.00;;;2.52;83.47
60871;BME280;46714;50.118;14.462;2022-12-08T09:39:51;98281.53;;;2.57;83.76
60871;BME280;46714;50.118;14.462;2022-12-08T09:42:18;98278.16;;;2.70;83.85
60871;BME280;46714;50.118;14.462;2022-12-08T09:45:04;98286.88;;;2.72;83.46
60871;BME280;46714;50.118;14.462;2022-12-08T09:47:36;98282.97;;;2.75;83.42
60871;BME280;46714;50.118;14.462;2022-12-08T09:50:10;98282.63;;;2.78;84.02
60871;BME280;46714;50.118;14.462;2022-12-08T09:55:19;98272.06;;;2.76;81.47
60871;BME280;46714;50.118;14.462;2022-12-08T09:57:50;98258.22;;;2.79;82.65
60871;BME280;46714;50.118;14.462;2022-12-08T10:00:24;98264.72;;;2.85;81.65
60871;BME280;46714;50.118;14.462;2022-12-08T10:02:49;98261.88;;;2.86;82.62
60871;BME280;46714;50.118;14.462;2022-12-08T10:05:15;98261.31;;;2.91;82.24
60871;BME280;46714;50.118;14.462;2022-12-08T10:13:07;98252.53;;;3.04;81.80
60871;BME280;46714;50.118;14.462;2022-12-08T10:18:28;98258.66;;;3.12;80.64
60871;BME280;46714;50.118;14.462;2022-12-08T10:20:56;98258.06;;;3.17;80.81
60871;BME280;46714;50.118;14.462;2022-12-08T10:23:35;98254.00;;;3.21;81.10
60871;BME280;46714;50.118;14.462;2022-12-08T10:26:04;98253.13;;;3.21;80.32
60871;BME280;46714;50.118;14.462;2022-12-08T10:28:32;98241.38;;;3.22;79.99
60871;BME280;46714;50.118;14.462;2022-12-08T10:30:58;98246.94;;;3.20;79.18
60871;BME280;46714;50.118;14.462;2022-12-08T10:33:24;98235.16;;;3.21;79.47
60871;BME280;46714;50.118;14.462;2022-12-08T10:35:51;98234.97;;;3.23;79.98
60871;BME280;46714;50.118;14.462;2022-12-08T10:40:50;98234.13;;;3.22;78.93
60871;BME280;46714;50.118;14.462;2022-12-08T10:43:22;98220.88;;;3.21;78.67
60871;BME280;46714;50.118;14.462;2022-12-08T10:45:50;98221.72;;;3.21;79.56
60871;BME280;46714;50.118;14.462;2022-12-08T10:50:52;98228.56;;;3.24;79.69
60871;BME280;46714;50.118;14.462;2022-12-08T10:53:21;98218.06;;;3.29;79.59
60871;BME280;46714;50.118;14.462;2022-12-08T10:55:52;98213.50;;;3.29;79.10
60871;BME280;46714;50.118;14.462;2022-12-08T10:58:35;98204.03;;;3.33;80.16
60871;BME280;46714;50.118;14.462;2022-12-08T11:01:20;98204.50;;;3.37;79.45
60871;BME280;46714;50.118;14.462;2022-12-08T11:04:04;98199.56;;;3.41;79.66
60871;BME280;46714;50.118;14.462;2022-12-08T11:06:36;98196.88;;;3.41;79.08
60871;BME280;46714;50.118;14.462;2022-12-08T11:11:57;98192.31;;;3.41;79.54
60871;BME280;46714;50.118;14.462;2022-12-08T11:14:45;98197.09;;;3.46;79.72
60871;BME280;46714;50.118;14.462;2022-12-08T11:22:36;98187.75;;;3.63;77.58
60871;BME280;46714;50.118;14.462;2022-12-08T11:27:32;98184.94;;;3.71;78.81
60871;BME280;46714;50.118;14.462;2022-12-08T11:30:00;98180.44;;;3.78;78.47
60871;BME280;46714;50.118;14.462;2022-12-08T11:32:27;98186.03;;;3.84;78.46
60871;BME280;46714;50.118;14.462;2022-12-08T11:37:21;98176.59;;;3.94;77.64
60871;BME280;46714;50.118;14.462;2022-12-08T11:39:53;98182.66;;;4.03;77.00
60871;BME280;46714;50.118;14.462;2022-12-08T11:42:25;98178.13;;;4.04;75.39
60871;BME280;46714;50.118;14.462;2022-12-08T11:44:57;98175.63;;;4.02;75.34
60871;BME280;46714;50.118;14.462;2022-12-08T11:47:30;98170.88;;;4.04;75.17
60871;BME280;46714;50.118;14.462;2022-12-08T11:50:49;98161.16;;;4.10;76.53
60871;BME280;46714;50.118;14.462;2022-12-08T11:52:55;98170.31;;;4.15;76.60
60871;BME280;46714;50.118;14.462;2022-12-08T11:58:28;98162.47;;;4.20;75.18
60871;BME280;46714;50.118;14.462;2022-12-08T12:01:16;98156.66;;;4.24;74.48
60871;BME280;46714;50.118;14.462;2022-12-08T12:03:45;98152.50;;;4.21;73.71
60871;BME280;46714;50.118;14.462;2022-12-08T12:06:31;98144.84;;;4.18;73.90
60871;BME280;46714;50.118;14.462;2022-12-08T12:15:04;98139.03;;;4.21;73.82
60871;BME280;46714;50.118;14.462;2022-12-08T12:17:41;98149.63;;;4.23;72.92
60871;BME280;46714;50.118;14.462;2022-12-08T12:22:56;98141.78;;;4.28;72.96
60871;BME280;46714;50.118;14.462;2022-12-08T12:31:11;98145.13;;;4.36;72.75
60871;BME280;46714;50.118;14.462;2022-12-08T12:33:40;98138.31;;;4.40;73.23
60871;BME280;46714;50.118;14.462;2022-12-08T12:36:07;98140.19;;;4.40;73.20
60871;BME280;46714;50.118;14.462;2022-12-08T12:38:34;98147.00;;;4.36;71.13
60871;BME280;46714;50.118;14.462;2022-12-08T12:41:22;98147.78;;;4.30;71.47
60871;BME280;46714;50.118;14.462;2022-12-08T12:52:03;98142.88;;;4.05;72.12
60871;BME280;46714;50.118;14.462;2022-12-08T12:54:28;98142.47;;;4.02;72.51
60871;BME280;46714;50.118;14.462;2022-12-08T12:56:55;98132.09;;;3.98;72.32
60871;BME280;46714;50.118;14.462;2022-12-08T12:59:42;98131.66;;;3.95;72.65
60871;BME280;46714;50.118;14.462;2022-12-08T13:02:33;98136.19;;;3.88;73.39
60871;BME280;46714;50.118;14.462;2022-12-08T13:08:01;98129.53;;;3.84;73.96
60871;BME280;46714;50.118;14.462;2022-12-08T13:10:32;98129.53;;;3.84;73.83
60871;BME280;46714;50.118;14.462;2022-12-08T13:13:14;98129.53;;;3.84;72.83
60871;BME280;46714;50.118;14.462;2022-12-08T13:21:04;98117.28;;;3.81;72.45
60871;BME280;46714;50.118;14.462;2022-12-08T13:26:25;98114.22;;;3.91;71.68
60871;BME280;46714;50.118;14.462;2022-12-08T13:34:36;98110.72;;;3.90;71.77
60871;BME280;46714;50.118;14.462;2022-12-08T13:45:16;98102.91;;;3.67;72.20
60871;BME280;46714;50.118;14.462;2022-12-08T13:47:51;98109.53;;;3.65;72.53
60871;BME280;46714;50.118;14.462;2022-12-08T13:50:20;98110.13;;;3.60;73.03
60871;BME280;46714;50.118;14.462;2022-12-08T13:55:16;98103.84;;;3.53;73.04
60871;BME280;46714;50.118;14.462;2022-12-08T13:57:49;98108.78;;;3.49;72.79
60871;BME280;46714;50.118;14.462;2022-12-08T14:00:16;98099.25;;;3.47;72.85
60871;BME280;46714;50.118;14.462;2022-12-08T14:02:44;98105.84;;;3.44;72.87
60871;BME280;46714;50.118;14.462;2022-12-08T14:05:11;98103.53;;;3.41;72.36
60871;BME280;46714;50.118;14.462;2022-12-08T14:07:38;98106.63;;;3.38;72.86
60871;BME280;46714;50.118;14.462;2022-12-08T14:10:47;98108.91;;;3.34;72.37
60871;BME280;46714;50.118;14.462;2022-12-08T14:13:00;98105.94;;;3.29;72.83
60871;BME280;46714;50.118;14.462;2022-12-08T14:15:28;98109.03;;;3.26;72.59
60871;BME280;46714;50.118;14.462;2022-12-08T14:17:56;98105.88;;;3.23;72.63
60871;BME280;46714;50.118;14.462;2022-12-08T14:20:26;98107.09;;;3.20;73.23
60871;BME280;46714;50.118;14.462;2022-12-08T14:22:54;98110.19;;;3.17;73.24
60871;BME280;46714;50.118;14.462;2022-12-08T14:25:20;98114.09;;;3.14;73.57
60871;BME280;46714;50.118;14.462;2022-12-08T14:27:47;98114.47;;;3.11;73.32
60871;BME280;46714;50.118;14.462;2022-12-08T14:32:48;98113.00;;;3.09;74.18
60871;BME280;46714;50.118;14.462;2022-12-08T14:35:19;98112.00;;;3.10;74.24
60871;BME280;46714;50.118;14.462;2022-12-08T14:37:46;98113.00;;;3.09;74.20
60871;BME280;46714;50.118;14.462;2022-12-08T14:42:45;98124.31;;;3.04;74.96
60871;BME280;46714;50.118;14.462;2022-12-08T14:45:14;98121.22;;;3.01;74.61
60871;BME280;46714;50.118;14.462;2022-12-08T14:47:42;98122.44;;;2.98;74.81
60871;BME280;46714;50.118;14.462;2022-12-08T14:53:03;98119.47;;;2.93;75.38
60871;BME280;46714;50.118;14.462;2022-12-08T14:55:35;98112.63;;;2.90;76.18
60871;BME280;46714;50.118;14.462;2022-12-08T14:58:01;98113.41;;;2.84;75.78
60871;BME280;46714;50.118;14.462;2022-12-08T15:00:27;98122.66;;;2.82;76.15
60871;BME280;46714;50.118;14.462;2022-12-08T15:02:52;98119.13;;;2.81;76.05
60871;BME280;46714;50.118;14.462;2022-12-08T15:05:20;98125.56;;;2.80;75.90
60871;BME280;46714;50.118;14.462;2022-12-08T15:10:23;98121.19;;;2.79;76.37
60871;BME280;46714;50.118;14.462;2022-12-08T15:15:51;98121.97;;;2.73;76.68
60871;BME280;46714;50.118;14.462;2022-12-08T15:18:29;98120.22;;;2.65;77.42